Time;durP1;ratioP1;P1;durP2;ratioP2;P2;SDS_P1;SDS_P2;PMS_P1;PMS_P2;Temp;Humidity;BMP_temperature;BMP_pressure;BME280_temperature;BME280_humidity;BME280_pressure;Samples;Min_cycle;Max_cycle;Signal;HPM_P1;HPM_P2
2022/01/03 00:01:51;;;;;;;10.33;1.80;;;10.20;96.40;;;;;;5014220;28;20418;-77
2022/01/03 00:04:17;;;;;;;10.60;2.43;;;10.30;96.30;;;;;;5008836;28;20423;-76
2022/01/03 00:06:44;;;;;;;14.50;2.10;;;10.30;96.20;;;;;;5037518;23;20458;-81
2022/01/03 00:09:10;;;;;;;14.77;2.30;;;10.30;96.30;;;;;;5010599;28;20431;-79
2022/01/03 00:11:36;;;;;;;13.23;2.40;;;10.40;96.00;;;;;;5012163;28;20426;-79
2022/01/03 00:14:02;;;;;;;4.23;1.77;;;10.40;96.10;;;;;;5011144;28;20462;-80
2022/01/03 00:16:30;;;;;;;6.33;2.00;;;10.40;95.80;;;;;;5010995;28;20445;-79
2022/01/03 00:18:56;;;;;;;13.43;2.30;;;10.40;95.80;;;;;;5019624;28;20426;-77
2022/01/03 00:21:44;;;;;;;8.63;2.40;;;10.50;95.70;;;;;;5020120;28;20438;-79
2022/01/03 00:24:11;;;;;;;6.63;2.10;;;10.50;95.80;;;;;;5019334;28;20312;-79
2022/01/03 00:26:38;;;;;;;14.63;3.37;;;10.60;95.80;;;;;;5018244;28;20482;-78
2022/01/03 00:29:18;;;;;;;7.60;2.10;;;10.60;95.70;;;;;;5016413;28;20442;-79
2022/01/03 00:31:45;;;;;;;8.40;2.77;;;10.60;95.60;;;;;;5006880;28;20434;-80
2022/01/03 00:34:12;;;;;;;9.47;2.70;;;10.60;95.40;;;;;;5006395;28;20419;-79
2022/01/03 00:36:39;;;;;;;9.90;2.93;;;10.60;95.40;;;;;;5006327;28;20517;-78
2022/01/03 00:39:08;;;;;;;13.03;1.87;;;10.60;95.20;;;;;;5008501;28;20411;-82
2022/01/03 00:41:37;;;;;;;13.23;3.07;;;10.60;95.20;;;;;;5008861;28;20430;-78
2022/01/03 00:44:03;;;;;;;12.40;3.10;;;10.60;95.20;;;;;;5008383;28;20440;-81
2022/01/03 00:46:31;;;;;;;11.30;2.43;;;10.60;95.20;;;;;;4994936;28;20643;-74
2022/01/03 00:49:00;;;;;;;14.30;2.23;;;10.60;95.10;;;;;;4995082;28;20518;-72
2022/01/03 00:51:26;;;;;;;10.60;2.30;;;10.60;95.20;;;;;;4994672;28;20407;-72
2022/01/03 00:53:52;;;;;;;7.53;2.53;;;10.50;95.10;;;;;;4993987;28;20766;-73
2022/01/03 01:31:33;;;;;;;12.67;1.70;;;10.30;94.40;;;;;;5011442;28;20933;-75
2022/01/03 01:34:04;;;;;;;11.10;2.30;;;10.30;94.70;;;;;;4996238;28;20773;-73
2022/01/03 01:36:30;;;;;;;5.43;2.00;;;10.30;94.70;;;;;;4995327;28;20414;-74
2022/01/03 01:39:05;;;;;;;8.80;2.00;;;10.30;94.90;;;;;;5009579;28;20476;-73
2022/01/03 01:41:37;;;;;;;10.53;2.20;;;10.30;95.00;;;;;;4995572;28;20428;-74
2022/01/03 01:44:07;;;;;;;17.77;3.13;;;10.40;94.90;;;;;;4996182;28;20772;-75
2022/01/03 01:46:35;;;;;;;12.20;2.13;;;10.40;94.90;;;;;;4995315;28;20446;-74
2022/01/03 01:49:07;;;;;;;11.87;2.03;;;10.30;95.00;;;;;;4996217;28;20493;-73
2022/01/03 01:51:34;;;;;;;10.73;2.43;;;10.30;94.90;;;;;;4997378;28;20406;-74
2022/01/03 01:54:04;;;;;;;13.10;2.80;;;10.30;94.90;;;;;;4996583;28;20398;-73
2022/01/03 01:56:58;;;;;;;24.80;3.13;;;10.30;95.00;;;;;;4995321;28;20500;-76
2022/01/03 01:59:42;;;;;;;8.57;2.30;;;10.20;95.10;;;;;;4996730;28;20940;-73
2022/01/03 02:02:11;;;;;;;15.43;2.80;;;10.20;95.00;;;;;;4995450;28;20444;-73
2022/01/03 02:04:47;;;;;;;10.50;2.27;;;10.20;94.90;;;;;;5013834;28;20418;-74
2022/01/03 02:07:36;;;;;;;12.63;2.50;;;10.20;94.80;;;;;;5001283;28;20449;-73
2022/01/03 02:10:09;;;;;;;9.00;2.10;;;10.20;94.70;;;;;;5031375;28;20410;-74
2022/01/03 02:12:42;;;;;;;17.53;2.80;;;10.20;94.70;;;;;;5007657;28;20402;-74
2022/01/03 02:15:13;;;;;;;10.27;2.00;;;10.20;94.60;;;;;;4995654;28;20414;-76
2022/01/03 02:17:40;;;;;;;10.93;1.87;;;10.20;94.40;;;;;;4995503;28;20442;-73
2022/01/03 02:20:20;;;;;;;5.20;1.53;;;10.20;94.40;;;;;;4995919;28;20425;-72
2022/01/03 02:22:48;;;;;;;6.83;2.07;;;10.20;94.40;;;;;;4996925;28;20405;-73
2022/01/03 02:25:19;;;;;;;11.30;1.80;;;10.10;94.20;;;;;;4995478;28;21102;-75
2022/01/03 02:27:47;;;;;;;11.10;2.13;;;10.10;94.30;;;;;;4995844;28;20943;-75
2022/01/03 02:30:18;;;;;;;8.57;1.70;;;10.10;94.30;;;;;;4995275;28;20433;-74
2022/01/03 02:32:44;;;;;;;5.60;1.30;;;10.00;94.30;;;;;;5013014;28;20771;-73
2022/01/03 02:35:11;;;;;;;10.23;1.97;;;10.00;94.40;;;;;;4994477;28;20831;-74
2022/01/03 02:37:42;;;;;;;10.10;2.17;;;10.00;94.20;;;;;;4994518;28;20441;-70
2022/01/03 02:40:11;;;;;;;9.60;2.00;;;10.00;94.40;;;;;;4994087;28;20707;-73
2022/01/03 02:42:38;;;;;;;5.47;1.70;;;9.90;94.90;;;;;;5010842;28;20418;-76
2022/01/03 02:45:17;;;;;;;5.60;1.60;;;9.90;95.00;;;;;;4993731;28;20457;-71
2022/01/03 02:47:49;;;;;;;8.60;1.67;;;9.90;95.10;;;;;;5013092;28;20488;-71
2022/01/03 02:50:17;;;;;;;5.90;1.60;;;9.80;95.10;;;;;;4994956;28;20840;-72
2022/01/03 02:52:43;;;;;;;9.87;2.67;;;9.80;95.20;;;;;;5007393;28;20406;-71
2022/01/03 02:55:11;;;;;;;14.33;4.07;;;9.80;95.10;;;;;;4994463;28;20604;-71
2022/01/03 02:57:46;;;;;;;8.23;1.80;;;9.80;95.10;;;;;;4993999;28;20434;-73
2022/01/03 03:00:16;;;;;;;12.77;2.03;;;9.80;95.10;;;;;;4993655;28;20410;-71
2022/01/03 03:02:42;;;;;;;12.27;2.07;;;9.80;95.10;;;;;;4994008;28;20418;-72
2022/01/03 03:05:10;;;;;;;4.90;2.20;;;9.80;95.10;;;;;;4993045;28;20493;-73
2022/01/03 03:07:38;;;;;;;8.97;2.20;;;9.90;95.00;;;;;;4993572;28;20445;-73
2022/01/03 03:10:07;;;;;;;12.93;1.70;;;10.00;94.20;;;;;;4993477;28;20490;-73
2022/01/03 03:12:34;;;;;;;10.77;1.90;;;10.10;93.80;;;;;;4993404;28;20410;-72
2022/01/03 03:14:59;;;;;;;6.53;1.67;;;10.20;93.80;;;;;;5011002;28;20509;-72
2022/01/03 03:17:25;;;;;;;6.10;1.13;;;10.20;93.10;;;;;;4993400;28;20509;-73
2022/01/03 03:19:54;;;;;;;11.30;1.70;;;10.20;93.00;;;;;;4993720;28;20473;-73
2022/01/03 03:22:22;;;;;;;9.70;2.40;;;10.10;93.00;;;;;;4993275;28;20174;-73
2022/01/03 03:24:48;;;;;;;5.60;1.67;;;10.10;93.00;;;;;;4993728;28;20994;-71
2022/01/03 03:27:14;;;;;;;8.00;2.27;;;10.10;92.80;;;;;;4993242;28;20429;-71
2022/01/03 03:29:49;;;;;;;9.63;1.90;;;10.00;92.80;;;;;;4993877;28;20493;-73
2022/01/03 03:32:15;;;;;;;7.23;2.13;;;10.00;92.90;;;;;;4993874;28;20855;-74
2022/01/03 03:34:42;;;;;;;10.60;2.40;;;10.00;92.80;;;;;;5012513;28;20759;-75
2022/01/03 03:37:09;;;;;;;16.13;2.80;;;10.00;92.90;;;;;;5011646;28;20432;-72
2022/01/03 03:39:36;;;;;;;8.50;1.53;;;10.10;92.90;;;;;;4994286;28;20434;-72
2022/01/03 03:42:04;;;;;;;10.80;1.93;;;10.10;92.70;;;;;;4992996;28;20410;-72
2022/01/03 03:44:30;;;;;;;8.20;2.13;;;10.20;92.60;;;;;;4993150;28;20402;-72
2022/01/03 03:46:58;;;;;;;10.07;2.10;;;10.20;92.50;;;;;;4991836;28;20499;-72
2022/01/03 03:49:24;;;;;;;12.90;2.17;;;10.10;92.40;;;;;;4993109;28;20586;-72
2022/01/03 03:51:50;;;;;;;15.60;1.73;;;10.10;92.50;;;;;;4992942;28;20410;-73
2022/01/03 03:54:16;;;;;;;11.93;1.90;;;10.00;92.50;;;;;;5010845;28;20783;-71
2022/01/03 03:56:42;;;;;;;10.00;2.73;;;10.00;92.60;;;;;;5010282;28;20712;-72
2022/01/03 03:59:08;;;;;;;7.13;1.83;;;9.90;93.20;;;;;;4992841;28;20249;-72
2022/01/03 04:01:34;;;;;;;17.87;2.47;;;9.90;93.30;;;;;;5010768;28;20433;-71
2022/01/03 04:04:00;;;;;;;12.43;3.17;;;9.90;93.30;;;;;;4992714;28;20178;-72
2022/01/03 04:06:26;;;;;;;14.33;2.13;;;9.90;93.30;;;;;;5010645;28;20441;-73
2022/01/03 04:08:58;;;;;;;9.57;2.07;;;9.80;93.30;;;;;;4992640;28;20470;-72
2022/01/03 04:11:23;;;;;;;9.10;1.80;;;9.80;93.20;;;;;;4993134;28;20889;-73
2022/01/03 04:13:50;;;;;;;13.33;2.50;;;9.80;93.20;;;;;;4992949;28;20167;-72
2022/01/03 04:16:17;;;;;;;5.07;1.47;;;9.80;93.10;;;;;;4992910;28;20417;-72
2022/01/03 04:18:42;;;;;;;9.63;3.13;;;9.70;93.20;;;;;;4993183;28;20437;-72
2022/01/03 04:21:09;;;;;;;9.57;2.00;;;9.70;93.10;;;;;;4993018;28;20167;-71
2022/01/03 04:23:35;;;;;;;15.00;2.87;;;9.80;93.20;;;;;;4992927;28;20977;-71
2022/01/03 04:26:04;;;;;;;6.37;1.87;;;9.80;92.90;;;;;;4993315;28;20747;-72
2022/01/03 04:28:30;;;;;;;10.73;2.00;;;9.80;92.90;;;;;;4994277;28;20445;-72
2022/01/03 04:30:56;;;;;;;10.30;2.23;;;9.80;92.80;;;;;;4993486;28;20977;-72
2022/01/03 04:33:22;;;;;;;4.57;1.80;;;9.90;92.80;;;;;;4993137;28;20717;-72
2022/01/03 04:35:49;;;;;;;7.03;1.67;;;9.90;92.80;;;;;;4993067;28;20167;-72
2022/01/03 04:38:15;;;;;;;12.70;3.03;;;10.00;92.00;;;;;;4993326;28;20445;-72
2022/01/03 04:40:41;;;;;;;9.33;1.63;;;10.00;92.00;;;;;;4993800;28;20175;-71
2022/01/03 04:43:06;;;;;;;9.10;1.70;;;10.00;91.60;;;;;;5013572;28;20189;-72
2022/01/03 04:45:32;;;;;;;13.47;1.70;;;10.00;91.60;;;;;;4996848;28;20445;-72
2022/01/03 04:47:58;;;;;;;8.30;2.27;;;10.00;91.40;;;;;;4997264;28;20187;-72
2022/01/03 04:50:25;;;;;;;7.80;2.10;;;10.00;91.50;;;;;;4998497;28;20194;-72
2022/01/03 04:52:50;;;;;;;12.33;4.40;;;10.00;91.50;;;;;;5014859;28;20409;-73
2022/01/03 04:55:16;;;;;;;9.00;1.87;;;10.00;91.30;;;;;;5014060;28;20171;-74
2022/01/03 04:57:42;;;;;;;9.90;1.83;;;10.00;91.20;;;;;;4996578;28;20195;-73
2022/01/03 05:00:09;;;;;;;9.47;1.90;;;10.00;91.10;;;;;;5012418;28;20421;-71
2022/01/03 05:02:37;;;;;;;6.03;2.27;;;10.10;91.00;;;;;;4995995;28;20480;-72
2022/01/03 05:05:06;;;;;;;7.87;2.90;;;10.10;90.90;;;;;;5011976;28;20425;-71
2022/01/03 05:07:32;;;;;;;8.30;2.70;;;10.10;90.80;;;;;;4996133;28;20438;-71
2022/01/03 05:09:58;;;;;;;16.77;2.23;;;10.10;90.50;;;;;;4996321;28;20797;-72
2022/01/03 05:12:24;;;;;;;7.83;1.53;;;10.10;90.50;;;;;;5014125;28;20501;-72
2022/01/03 05:14:49;;;;;;;5.57;2.03;;;10.00;90.70;;;;;;4995908;28;20222;-74
2022/01/03 05:17:16;;;;;;;11.80;2.40;;;9.90;91.30;;;;;;4996529;28;20210;-73
2022/01/03 05:19:42;;;;;;;11.83;2.50;;;9.90;91.40;;;;;;5013760;28;20410;-72
2022/01/03 05:22:07;;;;;;;7.47;2.10;;;9.90;91.40;;;;;;4998918;28;20433;-72
2022/01/03 05:24:35;;;;;;;5.07;1.70;;;10.00;90.80;;;;;;4998349;28;20190;-72
2022/01/03 05:27:05;;;;;;;8.83;1.73;;;10.00;90.70;;;;;;4995060;28;20568;-73
2022/01/03 05:29:32;;;;;;;9.70;2.00;;;10.10;90.40;;;;;;4995393;28;20409;-73
2022/01/03 05:31:58;;;;;;;7.13;2.07;;;10.10;90.40;;;;;;5013326;28;20422;-73
2022/01/03 05:34:24;;;;;;;11.13;1.90;;;10.10;90.40;;;;;;4996610;28;20796;-73
2022/01/03 05:36:51;;;;;;;10.33;2.23;;;10.20;90.30;;;;;;5009645;28;20414;-72
2022/01/03 05:39:17;;;;;;;10.53;2.23;;;10.20;90.30;;;;;;5011485;28;20934;-73
2022/01/03 05:41:43;;;;;;;10.03;2.20;;;10.20;90.10;;;;;;5007576;28;20445;-73
2022/01/03 05:44:10;;;;;;;5.30;1.93;;;10.20;90.10;;;;;;5000592;28;20695;-73
2022/01/03 05:46:38;;;;;;;9.10;2.47;;;10.20;90.00;;;;;;4998140;28;21031;-73
2022/01/03 05:49:04;;;;;;;14.03;1.97;;;10.30;90.00;;;;;;4996033;28;20422;-73
2022/01/03 05:51:29;;;;;;;9.83;2.43;;;10.30;90.00;;;;;;4995575;28;20879;-73
2022/01/03 05:53:55;;;;;;;11.80;2.47;;;10.20;90.00;;;;;;5011945;28;20510;-72
2022/01/03 05:56:22;;;;;;;10.23;2.17;;;10.20;90.10;;;;;;4994525;28;20167;-72
2022/01/03 05:58:49;;;;;;;10.70;2.40;;;10.20;90.20;;;;;;5012587;28;20445;-72
2022/01/03 06:01:15;;;;;;;10.00;1.93;;;10.10;90.10;;;;;;4995077;28;20425;-71
2022/01/03 06:03:41;;;;;;;7.87;1.90;;;10.10;90.20;;;;;;4994899;28;20919;-72
2022/01/03 06:08:37;;;;;;;7.13;2.47;;;10.10;90.30;;;;;;5040759;23;20633;-77
2022/01/03 06:11:04;;;;;;;11.13;2.40;;;10.20;90.30;;;;;;5016723;28;20508;-78
2022/01/03 06:13:32;;;;;;;7.90;2.23;;;10.20;90.30;;;;;;5000387;28;20402;-77
2022/01/03 06:15:58;;;;;;;9.60;2.17;;;10.20;90.30;;;;;;5017774;28;20418;-77
2022/01/03 06:18:25;;;;;;;7.70;1.60;;;10.20;90.30;;;;;;5020577;28;20512;-77
2022/01/03 06:20:57;;;;;;;7.70;2.07;;;10.20;90.40;;;;;;5020960;28;20409;-78
2022/01/03 06:23:27;;;;;;;8.17;1.93;;;10.20;90.30;;;;;;5020401;28;20424;-78
2022/01/03 06:25:53;;;;;;;8.30;2.40;;;10.30;90.30;;;;;;5038229;28;20460;-76
2022/01/03 06:28:39;;;;;;;10.77;2.73;;;10.30;90.20;;;;;;5007654;28;20191;-77
2022/01/03 06:31:06;;;;;;;11.00;3.50;;;10.30;90.20;;;;;;5019906;28;20455;-78
2022/01/03 06:33:31;;;;;;;6.57;1.53;;;10.30;90.20;;;;;;5020196;28;20425;-77
2022/01/03 06:35:57;;;;;;;9.07;2.40;;;10.30;90.60;;;;;;5020957;28;20178;-78
2022/01/03 06:38:23;;;;;;;11.20;1.77;;;10.30;90.30;;;;;;5022183;28;20433;-77
2022/01/03 06:40:49;;;;;;;5.73;1.97;;;10.30;90.30;;;;;;5019930;28;20464;-77
2022/01/03 06:43:15;;;;;;;13.43;2.40;;;10.30;90.30;;;;;;5019725;28;20178;-77
2022/01/03 06:45:40;;;;;;;10.57;1.70;;;10.30;90.20;;;;;;5018965;28;20226;-78
2022/01/03 06:48:06;;;;;;;12.67;2.90;;;10.40;90.20;;;;;;5039003;28;20175;-77
2022/01/03 06:50:34;;;;;;;6.07;1.90;;;10.30;90.20;;;;;;5020336;28;20257;-77
2022/01/03 06:53:01;;;;;;;6.30;2.20;;;10.30;90.10;;;;;;5020156;28;20921;-77
2022/01/03 06:55:28;;;;;;;16.23;3.00;;;10.30;90.20;;;;;;5020104;28;20409;-77
2022/01/03 06:57:53;;;;;;;6.30;1.97;;;10.30;90.20;;;;;;5019601;28;20437;-78
2022/01/03 07:00:20;;;;;;;9.60;2.23;;;10.30;90.30;;;;;;5018913;28;20180;-78
2022/01/03 07:02:46;;;;;;;7.77;2.30;;;10.20;90.40;;;;;;5018367;28;20421;-77
2022/01/03 07:05:13;;;;;;;6.73;1.80;;;10.20;90.50;;;;;;5017291;28;20421;-77
2022/01/03 07:07:39;;;;;;;6.50;2.13;;;10.20;90.60;;;;;;5035973;28;20433;-77
2022/01/03 07:10:06;;;;;;;11.13;2.30;;;10.20;90.70;;;;;;5015922;28;20423;-78
2022/01/03 07:12:31;;;;;;;9.93;2.50;;;10.30;90.80;;;;;;5035159;28;20417;-76
2022/01/03 07:20:09;;;;;;;4.83;1.70;;;10.30;90.80;;;;;;5038921;28;20171;-78
2022/01/03 07:22:39;;;;;;;10.10;2.90;;;10.30;90.80;;;;;;5037566;28;20409;-77
2022/01/03 07:25:08;;;;;;;13.70;1.90;;;10.30;90.90;;;;;;5041077;28;20672;-78
2022/01/03 07:27:34;;;;;;;9.50;1.70;;;10.30;91.00;;;;;;5008279;28;20917;-78
2022/01/03 07:30:00;;;;;;;11.07;2.30;;;10.30;91.00;;;;;;5037258;28;20420;-77
2022/01/03 07:32:25;;;;;;;9.00;2.43;;;10.30;91.10;;;;;;5037791;28;20168;-77
2022/01/03 07:34:51;;;;;;;8.63;1.77;;;10.30;91.10;;;;;;5036166;28;20166;-77
2022/01/03 07:37:18;;;;;;;17.10;2.00;;;10.20;91.30;;;;;;5018611;28;20201;-77
2022/01/03 07:39:43;;;;;;;17.63;1.97;;;10.20;91.40;;;;;;5036234;28;20174;-76
2022/01/03 07:42:09;;;;;;;10.80;2.50;;;10.20;91.50;;;;;;5017515;28;20409;-77
2022/01/03 07:44:40;;;;;;;8.60;2.93;;;10.20;91.60;;;;;;5004472;28;20567;-78
2022/01/03 07:47:06;;;;;;;6.83;1.57;;;10.20;91.80;;;;;;5000361;28;20484;-78
2022/01/03 07:49:32;;;;;;;15.07;2.53;;;10.20;91.80;;;;;;5015254;28;20166;-78
2022/01/03 07:51:58;;;;;;;10.97;2.27;;;10.20;91.80;;;;;;5028175;28;20211;-77
2022/01/03 07:54:24;;;;;;;10.83;2.10;;;10.30;91.80;;;;;;5028122;28;20240;-77
2022/01/03 07:56:50;;;;;;;10.63;2.33;;;10.30;91.80;;;;;;5000043;28;20418;-77
2022/01/03 07:59:15;;;;;;;7.70;2.20;;;10.30;91.90;;;;;;5021757;28;20175;-77
2022/01/03 08:01:41;;;;;;;9.23;2.20;;;10.30;91.90;;;;;;5015813;28;20185;-77
2022/01/03 08:04:07;;;;;;;14.17;2.70;;;10.30;92.00;;;;;;5033896;28;20251;-76
2022/01/03 08:06:33;;;;;;;7.93;4.10;;;10.30;92.00;;;;;;5019159;28;20191;-76
2022/01/03 08:09:01;;;;;;;5.93;1.80;;;10.40;92.10;;;;;;5017354;28;20445;-76
2022/01/03 08:11:27;;;;;;;9.17;2.10;;;10.40;92.10;;;;;;5015965;28;20541;-78
2022/01/03 08:13:53;;;;;;;6.77;2.00;;;10.40;92.20;;;;;;5013987;28;20509;-76
2022/01/03 08:16:19;;;;;;;14.63;2.67;;;10.40;92.30;;;;;;4997577;28;20206;-77
2022/01/03 08:18:45;;;;;;;9.37;3.37;;;10.40;92.40;;;;;;5018462;28;20473;-78
2022/01/03 08:21:13;;;;;;;8.80;1.77;;;10.30;92.50;;;;;;5019083;28;20416;-77
2022/01/03 08:23:40;;;;;;;11.27;2.10;;;10.30;92.70;;;;;;5017649;28;20601;-78
2022/01/03 08:26:06;;;;;;;9.60;2.20;;;10.30;93.00;;;;;;5020886;28;20450;-77
2022/01/03 08:28:32;;;;;;;7.20;2.23;;;10.30;93.20;;;;;;5018982;28;20500;-77
2022/01/03 08:30:57;;;;;;;7.90;2.90;;;10.30;93.40;;;;;;5018525;28;20398;-77
2022/01/03 08:33:23;;;;;;;8.60;2.27;;;10.30;93.70;;;;;;5002418;28;20246;-77
2022/01/03 08:35:49;;;;;;;12.67;1.90;;;10.30;93.80;;;;;;5033628;28;20182;-77
2022/01/03 08:38:15;;;;;;;11.57;2.90;;;10.30;93.80;;;;;;5058056;28;20754;-77
2022/01/03 08:40:40;;;;;;;8.60;2.30;;;10.30;93.90;;;;;;5056464;28;20211;-77
2022/01/03 08:43:06;;;;;;;21.93;2.77;;;10.30;93.90;;;;;;5038044;28;20684;-77
2022/01/03 08:45:31;;;;;;;5.90;2.50;;;10.40;93.90;;;;;;5032058;28;20209;-78
2022/01/03 08:47:58;;;;;;;9.17;1.63;;;10.40;94.00;;;;;;5001290;28;20237;-77
2022/01/03 08:50:24;;;;;;;10.97;2.77;;;10.40;93.80;;;;;;5023947;28;20171;-77
2022/01/03 08:52:49;;;;;;;11.33;2.73;;;10.40;93.90;;;;;;5025245;28;20422;-77
2022/01/03 08:55:16;;;;;;;11.10;2.43;;;10.40;93.90;;;;;;5030762;28;20171;-77
2022/01/03 08:57:42;;;;;;;9.90;2.93;;;10.50;93.90;;;;;;5029202;28;20191;-77
2022/01/03 09:00:09;;;;;;;8.97;2.17;;;10.50;94.00;;;;;;5009819;28;20969;-77
2022/01/03 09:02:35;;;;;;;8.40;2.37;;;10.50;93.90;;;;;;5015859;28;20163;-76
2022/01/03 09:05:01;;;;;;;7.03;3.23;;;10.50;94.10;;;;;;5030139;28;20452;-78
2022/01/03 09:07:26;;;;;;;14.30;2.30;;;10.50;94.50;;;;;;5026059;28;20894;-76
2022/01/03 09:09:52;;;;;;;3.77;1.83;;;10.50;94.80;;;;;;5016448;28;20171;-76
2022/01/03 09:12:18;;;;;;;4.40;1.60;;;10.60;94.40;;;;;;5017447;28;20482;-76
2022/01/03 09:14:44;;;;;;;10.90;2.57;;;10.60;94.40;;;;;;5015632;28;20550;-75
2022/01/03 09:17:09;;;;;;;7.47;2.33;;;10.60;94.00;;;;;;5031539;28;20162;-77
2022/01/03 09:19:35;;;;;;;8.03;1.93;;;10.70;94.00;;;;;;5006781;28;20444;-75
2022/01/03 09:22:26;;;;;;;9.03;3.93;;;10.80;93.30;;;;;;5018251;28;20204;-75
2022/01/03 09:30:11;;;;;;;7.53;2.10;;;10.90;91.90;;;;;;5031155;28;20436;-73
2022/01/03 09:32:37;;;;;;;7.97;2.37;;;11.00;91.60;;;;;;5012013;28;20426;-74
2022/01/03 09:35:04;;;;;;;9.37;1.63;;;11.30;90.50;;;;;;5013923;28;20422;-73
2022/01/03 09:37:31;;;;;;;8.67;2.67;;;11.90;90.90;;;;;;4995834;28;20187;-74
2022/01/03 09:39:57;;;;;;;5.90;2.33;;;12.50;83.80;;;;;;5011891;28;20791;-74
2022/01/03 09:42:27;;;;;;;6.90;2.10;;;12.60;83.40;;;;;;5035038;28;20455;-75
2022/01/03 09:44:53;;;;;;;10.03;2.80;;;12.50;81.70;;;;;;5028858;28;20655;-75
2022/01/03 09:47:21;;;;;;;9.27;2.27;;;12.40;82.50;;;;;;5018284;28;20457;-75
2022/01/03 09:49:47;;;;;;;7.20;1.73;;;12.30;83.10;;;;;;5033288;28;20535;-75
2022/01/03 09:52:15;;;;;;;8.50;2.10;;;12.40;83.20;;;;;;5015808;28;20424;-75
2022/01/03 09:54:41;;;;;;;14.30;2.97;;;12.50;84.80;;;;;;5014422;28;20473;-76
2022/01/03 09:57:07;;;;;;;10.17;2.40;;;12.70;81.30;;;;;;5024198;28;20875;-74
2022/01/03 09:59:34;;;;;;;12.10;2.90;;;13.20;81.30;;;;;;5035504;28;20435;-74
2022/01/03 10:02:03;;;;;;;8.43;2.53;;;13.80;77.10;;;;;;5032412;28;20175;-75
2022/01/03 10:04:28;;;;;;;8.80;2.50;;;14.00;74.30;;;;;;5016364;28;20429;-74
2022/01/03 10:06:55;;;;;;;12.93;2.57;;;13.70;74.10;;;;;;5029135;28;20497;-72
2022/01/03 10:09:22;;;;;;;15.53;3.50;;;13.30;75.90;;;;;;5027919;28;20182;-73
2022/01/03 10:11:48;;;;;;;11.20;2.70;;;13.00;78.10;;;;;;5012809;28;20477;-75
2022/01/03 10:14:15;;;;;;;14.00;3.77;;;12.70;79.20;;;;;;5030225;28;20453;-76
2022/01/03 10:16:42;;;;;;;10.00;2.23;;;12.50;80.90;;;;;;5017785;28;20187;-73
2022/01/03 10:19:08;;;;;;;13.40;2.90;;;12.50;80.80;;;;;;5033170;28;20439;-74
2022/01/03 10:21:47;;;;;;;8.30;2.43;;;12.50;82.10;;;;;;5023701;28;20433;-74
2022/01/03 10:24:16;;;;;;;10.60;2.73;;;12.50;81.80;;;;;;5028269;28;20502;-74
2022/01/03 10:26:50;;;;;;;10.90;4.33;;;12.50;81.50;;;;;;5034965;28;20448;-76
2022/01/03 10:29:27;;;;;;;10.40;2.80;;;12.50;81.30;;;;;;5015992;28;20575;-76
2022/01/03 10:31:58;;;;;;;8.73;2.93;;;12.50;81.80;;;;;;5035007;28;20783;-74
2022/01/03 10:34:25;;;;;;;9.87;2.77;;;12.50;82.00;;;;;;5029338;28;20437;-75
2022/01/03 10:36:52;;;;;;;10.23;3.57;;;12.70;82.40;;;;;;5015146;28;20438;-76
2022/01/03 10:39:19;;;;;;;15.00;2.13;;;13.10;81.00;;;;;;5012143;28;20540;-76
2022/01/03 10:41:51;;;;;;;6.57;2.10;;;13.20;77.80;;;;;;5014654;28;20504;-76
2022/01/03 10:44:36;;;;;;;17.13;2.37;;;13.10;77.70;;;;;;5034124;28;20484;-75
2022/01/03 10:47:04;;;;;;;11.40;2.23;;;13.00;78.30;;;;;;5029074;28;20468;-76
2022/01/03 10:49:30;;;;;;;6.60;2.03;;;13.00;78.70;;;;;;5017193;28;20534;-76
2022/01/03 10:52:13;;;;;;;7.43;1.80;;;13.00;78.30;;;;;;5026913;28;20456;-75
2022/01/03 10:54:39;;;;;;;11.83;2.63;;;12.90;78.30;;;;;;5031909;28;20416;-76
2022/01/03 10:57:05;;;;;;;8.80;1.70;;;12.70;79.40;;;;;;5033259;28;20425;-76
2022/01/03 10:59:34;;;;;;;15.73;2.60;;;12.60;79.90;;;;;;5022320;28;20428;-76
2022/01/03 11:02:01;;;;;;;13.30;2.60;;;12.40;80.60;;;;;;5022500;28;20293;-76
2022/01/03 11:13:04;;;;;;;10.37;2.80;;;12.20;85.20;;;;;;5016981;28;20444;-75
2022/01/03 11:15:30;;;;;;;8.17;3.40;;;12.40;85.50;;;;;;5035031;28;20479;-76
2022/01/03 11:18:13;;;;;;;10.50;4.03;;;12.60;84.40;;;;;;5021575;28;20425;-75
2022/01/03 11:20:39;;;;;;;11.27;3.67;;;12.70;83.40;;;;;;5023443;28;20181;-76
2022/01/03 11:23:05;;;;;;;11.13;2.40;;;12.80;84.00;;;;;;5018016;28;20433;-77
2022/01/03 11:25:33;;;;;;;6.77;1.90;;;13.00;82.10;;;;;;5000342;28;20462;-76
2022/01/03 11:28:03;;;;;;;3.20;1.33;;;13.00;80.90;;;;;;5013099;28;20191;-74
2022/01/03 11:30:29;;;;;;;6.63;1.53;;;12.80;79.70;;;;;;5032183;28;20429;-78
2022/01/03 11:32:56;;;;;;;8.60;1.43;;;12.70;80.00;;;;;;5027283;28;20431;-77
2022/01/03 11:35:22;;;;;;;6.90;1.10;;;12.60;80.90;;;;;;5024498;28;20507;-77
2022/01/03 11:37:50;;;;;;;4.60;1.63;;;12.60;81.00;;;;;;5024094;28;20456;-76
2022/01/03 11:40:17;;;;;;;5.30;1.80;;;12.60;80.40;;;;;;5031152;28;20425;-77
2022/01/03 11:42:44;;;;;;;5.83;1.70;;;12.60;81.60;;;;;;5035550;28;20505;-77
2022/01/03 11:45:10;;;;;;;6.40;1.67;;;12.60;81.20;;;;;;5018432;28;21000;-77
2022/01/03 11:47:37;;;;;;;7.33;2.33;;;12.60;81.50;;;;;;5035911;28;20474;-77
2022/01/03 11:50:05;;;;;;;7.43;1.83;;;12.60;81.20;;;;;;5036678;28;20405;-77
2022/01/03 11:52:35;;;;;;;6.00;1.33;;;12.40;81.60;;;;;;5033581;28;20404;-75
2022/01/03 11:55:02;;;;;;;10.73;1.63;;;12.20;82.30;;;;;;5016961;28;20413;-77
2022/01/03 11:58:08;;;;;;;4.93;1.77;;;12.00;83.30;;;;;;5016764;28;20441;-76
2022/01/03 12:03:52;;;;;;;3.87;1.30;;;11.70;84.80;;;;;;5035398;28;20504;-75
2022/01/03 12:06:11;;;;;;;6.70;1.90;;;11.60;85.40;;;;;;5031246;28;20463;-77
2022/01/03 12:08:39;;;;;;;7.27;1.90;;;11.60;85.80;;;;;;5036762;28;20444;-76
2022/01/03 12:11:21;;;;;;;5.00;1.50;;;11.60;86.20;;;;;;5035031;28;20891;-75
2022/01/03 12:14:09;;;;;;;8.73;2.70;;;11.70;86.10;;;;;;5016753;28;20421;-77
2022/01/03 12:16:46;;;;;;;3.47;1.37;;;11.70;86.00;;;;;;5019276;28;20417;-78
2022/01/03 12:19:28;;;;;;;5.87;1.60;;;11.70;85.70;;;;;;5037949;28;20432;-77
2022/01/03 12:22:06;;;;;;;9.30;2.20;;;11.70;85.90;;;;;;5035753;28;20782;-76
2022/01/03 12:24:32;;;;;;;14.70;2.50;;;11.80;85.40;;;;;;5020672;28;20478;-76
2022/01/03 12:27:10;;;;;;;6.50;1.63;;;11.90;85.90;;;;;;5016541;28;20460;-76
2022/01/03 12:29:54;;;;;;;7.00;2.23;;;11.90;85.00;;;;;;5016979;28;20640;-77
2022/01/03 12:32:27;;;;;;;6.53;2.80;;;11.90;85.00;;;;;;5036026;28;20419;-76
2022/01/03 12:35:17;;;;;;;7.97;1.70;;;12.00;85.60;;;;;;5036754;28;20891;-77
2022/01/03 12:37:50;;;;;;;7.97;3.50;;;12.00;84.60;;;;;;5018093;28;20459;-76
2022/01/03 12:40:37;;;;;;;6.30;2.50;;;12.00;84.10;;;;;;5020199;28;21001;-77
2022/01/03 12:43:05;;;;;;;7.93;2.53;;;11.90;83.80;;;;;;5033759;28;20497;-77
2022/01/03 12:45:34;;;;;;;7.70;2.13;;;11.90;84.10;;;;;;5017550;28;20560;-76
2022/01/03 12:48:12;;;;;;;12.87;3.70;;;11.80;84.40;;;;;;5036884;28;20426;-76
2022/01/03 12:51:04;;;;;;;6.67;2.03;;;11.90;84.10;;;;;;5036041;28;20412;-76
2022/01/03 12:53:29;;;;;;;10.87;1.80;;;11.90;83.40;;;;;;5036356;28;20405;-77
2022/01/03 12:56:19;;;;;;;5.97;1.80;;;11.90;83.30;;;;;;5038508;28;20401;-77
2022/01/03 12:58:51;;;;;;;8.97;2.00;;;11.90;82.20;;;;;;5035572;28;20243;-76
2022/01/03 13:01:17;;;;;;;9.80;1.50;;;11.90;82.30;;;;;;5019545;28;20571;-76
2022/01/03 13:03:50;;;;;;;9.30;2.40;;;11.90;81.70;;;;;;5033808;28;20444;-76
2022/01/03 13:06:24;;;;;;;4.73;1.50;;;11.80;81.30;;;;;;5039315;28;20220;-75
2022/01/03 13:08:56;;;;;;;3.30;1.53;;;11.80;81.20;;;;;;5040130;28;20538;-76
2022/01/03 13:11:28;;;;;;;9.10;2.20;;;11.70;81.10;;;;;;5038793;28;20957;-78
2022/01/03 13:13:56;;;;;;;5.77;1.90;;;11.70;81.50;;;;;;5022212;28;20420;-76
2022/01/03 13:16:23;;;;;;;6.80;1.40;;;11.70;82.00;;;;;;5040237;28;20414;-77
2022/01/03 13:18:53;;;;;;;11.33;1.43;;;11.70;82.00;;;;;;5023449;28;20433;-78
2022/01/03 13:21:21;;;;;;;10.93;2.33;;;11.70;82.30;;;;;;5046989;28;20405;-76
2022/01/03 13:24:06;;;;;;;12.93;4.83;;;11.80;82.80;;;;;;5025877;28;20692;-76
2022/01/03 13:26:32;;;;;;;8.13;1.80;;;11.70;82.70;;;;;;5025243;28;20973;-77
2022/01/03 13:29:02;;;;;;;61.57;39.67;;;11.70;82.80;;;;;;5023558;28;20523;-78
2022/01/03 13:31:28;;;;;;;7.17;2.23;;;11.70;82.90;;;;;;5023960;28;20428;-76
2022/01/03 13:33:58;;;;;;;9.33;2.00;;;11.70;83.10;;;;;;5040072;28;20406;-77
2022/01/03 13:36:34;;;;;;;9.20;2.20;;;11.60;83.60;;;;;;5021051;28;20269;-77
2022/01/03 13:39:12;;;;;;;4.93;1.90;;;11.60;83.90;;;;;;5021638;28;20444;-77
2022/01/03 13:41:40;;;;;;;9.53;2.40;;;11.60;84.50;;;;;;5041356;28;20409;-76
2022/01/03 13:44:10;;;;;;;10.23;2.23;;;11.60;84.60;;;;;;5046305;28;20546;-76
2022/01/03 13:49:22;;;;;;;6.03;2.23;;;11.50;83.00;;;;;;5044450;28;20405;-77
2022/01/03 13:51:53;;;;;;;11.57;1.73;;;11.50;82.90;;;;;;5041762;28;20412;-77
2022/01/03 13:54:30;;;;;;;7.60;2.30;;;11.60;82.60;;;;;;5040146;28;20790;-77